createdAt,value
2023-04-07T00:00:36.479Z,0.11
2023-04-07T00:01:37.615Z,0.15
2023-04-07T00:02:36.737Z,0.10
2023-04-07T00:03:36.977Z,0.11
2023-04-07T00:04:37.248Z,0.10
2023-04-07T00:05:36.918Z,0.07
2023-04-07T00:06:37.436Z,0.11
2023-04-07T00:07:45.000Z,0.08
2023-04-07T00:08:38.189Z,0.07
2023-04-07T00:09:37.374Z,0.07
2023-04-07T00:10:37.417Z,0.10
2023-04-07T00:11:37.679Z,0.02
2023-04-07T00:12:37.529Z,0.02
2023-04-07T00:13:38.613Z,-0.01
2023-04-07T00:14:38.928Z,-0.04
2023-04-07T00:15:38.793Z,-0.04
2023-04-07T00:16:38.663Z,-0.11
2023-04-07T00:17:38.217Z,-0.11
2023-04-07T00:18:38.080Z,-0.08
2023-04-07T00:19:38.402Z,-0.15
2023-04-07T00:20:38.614Z,-0.15
2023-04-07T00:21:38.299Z,-0.21
2023-04-07T00:22:39.389Z,-0.16
2023-04-07T00:23:38.512Z,-0.19
2023-04-07T00:24:39.576Z,-0.22
2023-04-07T00:25:38.674Z,-0.21
2023-04-07T00:26:38.977Z,-0.21
2023-04-07T00:27:39.030Z,-0.22
2023-04-07T00:28:39.839Z,-0.26
2023-04-07T00:29:38.948Z,-0.28
2023-04-07T00:30:39.164Z,-0.25
2023-04-07T00:31:39.176Z,-0.25
2023-04-07T00:32:39.249Z,-0.31
2023-04-07T00:33:39.275Z,-0.33
2023-04-07T00:34:40.402Z,-0.34
2023-04-07T02:24:08.821Z,-0.99
2023-04-07T04:13:07.550Z,-0.47
2023-04-07T06:01:30.671Z,1.65
2023-04-07T06:02:30.776Z,1.76
2023-04-07T06:03:30.792Z,1.77
2023-04-07T06:04:30.829Z,1.88
2023-04-07T06:05:30.845Z,2.02
2023-04-07T06:06:30.947Z,2.16
2023-04-07T06:07:31.028Z,2.21
2023-04-07T06:08:31.098Z,2.35
2023-04-07T06:09:31.154Z,2.43
2023-04-07T06:10:31.252Z,2.49
2023-04-07T06:11:31.325Z,2.60
2023-04-07T06:12:31.543Z,2.64
2023-04-07T06:13:31.514Z,2.67
2023-04-07T06:14:31.556Z,2.81
2023-04-07T06:15:31.674Z,2.78
2023-04-07T06:16:31.787Z,2.82
2023-04-07T06:17:31.876Z,2.89
2023-04-07T06:18:31.930Z,2.89
2023-04-07T06:19:32.037Z,2.96
2023-04-07T06:20:32.119Z,2.99
2023-04-07T06:21:32.158Z,3.03
2023-04-07T06:22:32.313Z,3.02
2023-04-07T06:23:32.312Z,3.02
2023-04-07T06:24:32.448Z,3.02
2023-04-07T06:25:32.507Z,3.08
2023-04-07T06:26:32.545Z,3.13
2023-04-07T06:27:32.670Z,3.10
2023-04-07T06:28:32.732Z,3.13
2023-04-07T06:29:32.834Z,3.20
2023-04-07T06:30:32.969Z,3.24
2023-04-07T06:31:33.013Z,3.15
2023-04-07T06:32:33.099Z,3.18
2023-04-07T06:33:33.200Z,3.26
2023-04-07T06:34:33.270Z,3.24
2023-04-07T06:35:33.364Z,3.23
2023-04-07T06:40:42.406Z,3.24
2023-04-07T06:41:42.495Z,3.33
2023-04-07T06:42:42.583Z,3.33
2023-04-07T06:43:42.673Z,3.33
2023-04-07T06:44:42.751Z,3.36
2023-04-07T06:45:42.890Z,3.36
2023-04-07T06:46:43.030Z,3.43
2023-04-07T06:47:43.064Z,3.42
2023-04-07T06:48:43.143Z,3.42
2023-04-07T06:49:43.218Z,3.47
2023-04-07T06:50:43.317Z,3.43
2023-04-07T06:51:43.445Z,3.51
2023-04-07T06:52:43.476Z,3.54
2023-04-07T06:53:43.611Z,3.54
2023-04-07T06:54:43.711Z,3.61
2023-04-07T06:55:43.791Z,3.66
2023-04-07T06:56:43.791Z,3.62
2023-04-07T06:57:43.881Z,3.70
2023-04-07T06:58:43.960Z,3.70
2023-04-07T06:59:44.070Z,3.75
2023-04-07T07:00:44.108Z,3.78
2023-04-07T07:01:44.205Z,3.75
2023-04-07T07:02:44.366Z,3.80
2023-04-07T07:03:44.382Z,3.80
2023-04-07T07:04:44.404Z,3.91
2023-04-07T07:05:44.528Z,3.87
2023-04-07T07:06:44.561Z,3.87
2023-04-07T07:07:44.661Z,3.80
2023-04-07T07:08:44.767Z,3.87
2023-04-07T07:09:44.795Z,3.88
2023-04-07T07:10:44.885Z,3.91
2023-04-07T07:11:44.949Z,3.93
2023-04-07T07:12:45.061Z,3.94
2023-04-07T07:13:45.164Z,3.98
2023-04-07T07:14:45.173Z,4.05
2023-04-07T07:15:45.307Z,4.05
2023-04-07T07:16:45.377Z,4.05
2023-04-07T07:17:45.503Z,4.12
2023-04-07T07:18:45.513Z,4.15
2023-04-07T07:19:45.565Z,4.22
2023-04-07T07:20:45.671Z,4.24
2023-04-07T07:21:45.729Z,4.34
2023-04-07T07:22:45.845Z,4.36
2023-04-07T07:23:46.251Z,4.36
2023-04-07T07:24:46.054Z,4.40
2023-04-07T07:25:46.123Z,4.47
2023-04-07T07:26:46.164Z,4.48
2023-04-07T07:27:46.262Z,4.58
2023-04-07T07:28:46.298Z,4.62
2023-04-07T07:29:46.366Z,4.63
2023-04-07T07:30:46.498Z,4.62
2023-04-07T07:31:46.532Z,4.69
2023-04-07T07:32:46.649Z,4.75
2023-04-07T07:33:46.936Z,4.70
2023-04-07T07:34:46.806Z,4.69
2023-04-07T07:35:46.901Z,4.70
2023-04-07T07:36:46.963Z,4.70
2023-04-07T07:37:47.059Z,4.77
2023-04-07T07:38:47.142Z,4.75
2023-04-07T07:39:47.228Z,4.72
2023-04-07T07:40:47.330Z,4.69
2023-04-07T07:41:47.380Z,4.72
2023-04-07T07:42:47.465Z,4.70
2023-04-07T07:43:47.671Z,4.73
2023-04-07T07:44:47.637Z,4.77
2023-04-07T07:45:47.746Z,4.84
2023-04-07T07:46:47.829Z,4.82
2023-04-07T07:47:48.055Z,4.84
2023-04-07T07:48:47.973Z,4.88
2023-04-07T07:49:48.078Z,4.96
2023-04-07T07:50:48.153Z,4.96
2023-04-07T07:51:48.226Z,5.06
2023-04-07T07:52:48.332Z,5.09
2023-04-07T07:53:48.491Z,5.07
2023-04-07T07:54:48.483Z,5.17
2023-04-07T07:55:48.564Z,5.22
2023-04-07T07:56:48.652Z,5.27
2023-04-07T07:57:48.760Z,5.33
2023-04-07T07:58:48.809Z,5.39
2023-04-07T07:59:48.910Z,5.36
2023-04-07T08:00:48.964Z,5.36
2023-04-07T08:01:49.112Z,5.39
2023-04-07T08:02:49.182Z,5.40
2023-04-07T08:03:49.715Z,5.46
2023-04-07T08:04:49.326Z,5.51
2023-04-07T08:05:49.373Z,5.53
2023-04-07T08:06:49.437Z,5.61
2023-04-07T08:07:49.521Z,5.67
2023-04-07T08:08:49.621Z,5.82
2023-04-07T08:09:49.700Z,5.85
2023-04-07T08:10:49.774Z,5.91
2023-04-07T08:11:49.884Z,5.96
2023-04-07T08:12:49.957Z,6.08
2023-04-07T08:13:50.131Z,6.12
2023-04-07T08:14:50.125Z,6.21
2023-04-07T08:15:50.220Z,6.28
2023-04-07T08:16:50.297Z,6.28
2023-04-07T08:17:50.425Z,6.30
2023-04-07T08:18:50.471Z,6.17
2023-04-07T08:19:50.544Z,6.12
2023-04-07T08:20:50.624Z,6.03
2023-04-07T08:21:50.694Z,6.09
2023-04-07T08:22:50.764Z,6.01
2023-04-07T08:23:51.068Z,6.00
2023-04-07T08:24:50.891Z,6.06
2023-04-07T08:25:50.956Z,6.12
2023-04-07T08:26:51.059Z,6.15
2023-04-07T08:27:51.134Z,6.15
2023-04-07T08:28:51.218Z,6.18
2023-04-07T08:29:51.315Z,6.18
2023-04-07T08:30:51.355Z,6.18
2023-04-07T08:31:51.497Z,6.19
2023-04-07T08:32:51.504Z,6.25
2023-04-07T08:33:51.565Z,6.25
2023-04-07T08:34:51.669Z,6.36
2023-04-07T08:35:51.796Z,6.40
2023-04-07T08:36:51.828Z,6.40
2023-04-07T08:37:51.878Z,6.41
2023-04-07T08:38:51.977Z,6.41
2023-04-07T08:39:52.057Z,6.43
2023-04-07T08:40:52.122Z,6.41
2023-04-07T08:41:52.197Z,6.38
2023-04-07T08:42:52.272Z,6.43
2023-04-07T08:43:52.438Z,6.37
2023-04-07T08:44:52.499Z,6.37
2023-04-07T08:45:53.631Z,6.34
2023-04-07T08:46:52.632Z,6.28
2023-04-07T08:47:52.781Z,6.31
2023-04-07T08:48:52.809Z,6.22
2023-04-07T08:49:52.896Z,6.22
2023-04-07T08:50:53.068Z,6.28
2023-04-07T08:51:53.061Z,6.30
2023-04-07T08:52:53.132Z,6.33
2023-04-07T08:53:53.244Z,6.37
2023-04-07T08:54:53.305Z,6.41
2023-04-07T08:55:53.367Z,6.34
2023-04-07T08:56:53.472Z,6.36
2023-04-07T08:57:53.549Z,6.38
2023-04-07T08:58:53.627Z,6.37
2023-04-07T08:59:53.705Z,6.38
2023-04-07T09:00:53.789Z,6.46
2023-04-07T09:01:53.881Z,6.48
2023-04-07T09:02:54.017Z,6.51
2023-04-07T09:03:54.081Z,6.51
2023-04-07T09:04:54.112Z,6.46
2023-04-07T09:05:54.215Z,6.37
2023-04-07T09:06:54.276Z,6.25
2023-04-07T09:07:54.360Z,6.22
2023-04-07T09:08:55.327Z,6.27
2023-04-07T09:09:54.519Z,6.22
2023-04-07T09:10:54.656Z,6.17
2023-04-07T09:11:54.680Z,6.03
2023-04-07T09:12:54.744Z,6.03
2023-04-07T09:13:54.831Z,6.11
2023-04-07T09:14:54.898Z,6.08
2023-04-07T09:15:54.991Z,6.06
2023-04-07T09:16:55.167Z,6.09
2023-04-07T09:17:55.139Z,6.09
2023-04-07T09:18:55.179Z,6.06
2023-04-07T09:19:55.241Z,6.14
2023-04-07T09:20:55.321Z,6.19
2023-04-07T09:21:55.440Z,6.17
2023-04-07T09:22:55.499Z,6.17
2023-04-07T09:23:55.617Z,6.15
2023-04-07T09:24:55.711Z,6.14
2023-04-07T09:25:55.791Z,6.08
2023-04-07T09:26:55.899Z,5.97
2023-04-07T09:27:55.955Z,5.99
2023-04-07T09:28:56.078Z,6.03
2023-04-07T09:29:56.110Z,6.03
2023-04-07T09:30:56.170Z,5.93
2023-04-07T09:31:56.295Z,5.89
2023-04-07T09:32:56.358Z,5.85
2023-04-07T09:33:56.405Z,5.85
2023-04-07T09:34:56.478Z,5.83
2023-04-07T09:35:56.575Z,5.79
2023-04-07T09:36:56.731Z,5.74
2023-04-07T09:37:56.745Z,5.68
2023-04-07T09:38:56.835Z,5.65
2023-04-07T09:39:56.892Z,5.65
2023-04-07T09:40:57.494Z,5.64
2023-04-07T09:41:57.073Z,5.64
2023-04-07T09:42:57.177Z,5.64
2023-04-07T09:43:57.202Z,5.65
2023-04-07T09:44:57.259Z,5.63
2023-04-07T09:45:57.394Z,5.63
2023-04-07T09:46:57.412Z,5.61
2023-04-07T09:47:57.496Z,5.60
2023-04-07T09:48:57.584Z,5.58
2023-04-07T09:49:57.643Z,5.58
2023-04-07T09:50:57.745Z,5.67
2023-04-07T09:51:57.818Z,5.76
2023-04-07T09:52:57.954Z,5.76
2023-04-07T09:53:58.002Z,5.83
2023-04-07T09:54:58.089Z,5.83
2023-04-07T09:55:58.231Z,5.81
2023-04-07T09:56:58.312Z,5.81
2023-04-07T09:57:58.408Z,5.79
2023-04-07T09:58:58.541Z,5.75
2023-04-07T09:59:58.524Z,5.75
2023-04-07T10:00:58.638Z,5.65
2023-04-07T10:01:58.802Z,5.61
2023-04-07T10:02:58.853Z,5.71
2023-04-07T10:03:58.904Z,5.68
2023-04-07T10:04:58.931Z,5.68
2023-04-07T10:05:59.098Z,5.74
2023-04-07T10:06:59.152Z,5.71
2023-04-07T10:07:59.197Z,5.67
2023-04-07T10:08:59.320Z,5.64
2023-04-07T10:09:59.374Z,5.67
2023-04-07T10:10:59.489Z,5.61
2023-04-07T10:11:59.505Z,5.61
2023-04-07T10:12:59.592Z,5.63
2023-04-07T10:13:59.695Z,5.53
2023-04-07T10:14:59.803Z,5.61
2023-04-07T10:15:59.847Z,5.60
2023-04-07T10:16:59.976Z,5.58
2023-04-07T10:18:00.144Z,5.56
2023-04-07T10:19:00.138Z,5.60
2023-04-07T10:20:00.160Z,5.58
2023-04-07T10:21:00.243Z,5.63
2023-04-07T10:22:00.296Z,5.60
2023-04-07T10:23:00.356Z,5.64
2023-04-07T10:24:00.463Z,5.60
2023-04-07T10:25:00.561Z,5.64
2023-04-07T10:26:00.623Z,5.67
2023-04-07T10:27:00.680Z,5.67
2023-04-07T10:28:00.800Z,5.68
2023-04-07T10:29:00.849Z,5.81
2023-04-07T10:30:00.952Z,5.79
2023-04-07T10:31:01.091Z,5.78
2023-04-07T10:32:01.146Z,5.78
2023-04-07T10:33:01.353Z,5.85
2023-04-07T10:34:01.297Z,5.83
2023-04-07T10:35:01.341Z,5.93
2023-04-07T10:36:01.480Z,5.89
2023-04-07T10:37:01.493Z,5.85
2023-04-07T10:38:01.627Z,5.81
2023-04-07T10:39:01.667Z,5.79
2023-04-07T10:40:01.791Z,5.89
2023-04-07T10:41:01.860Z,5.89
2023-04-07T10:42:01.940Z,5.96
2023-04-07T10:43:02.076Z,5.90
2023-04-07T10:44:02.134Z,5.94
2023-04-07T10:45:02.174Z,5.93
2023-04-07T10:46:02.307Z,5.89
2023-04-07T10:47:02.400Z,5.89
2023-04-07T10:48:02.498Z,5.81
2023-04-07T10:49:02.540Z,5.79
2023-04-07T10:50:02.670Z,5.78
2023-04-07T10:51:02.716Z,5.79
2023-04-07T10:52:02.786Z,5.86
2023-04-07T10:53:02.847Z,5.81
2023-04-07T10:54:02.933Z,5.81
2023-04-07T10:55:02.987Z,5.82
2023-04-07T10:56:03.085Z,5.83
2023-04-07T10:57:03.164Z,5.93
2023-04-07T10:58:03.252Z,5.93
2023-04-07T10:59:03.351Z,5.99
2023-04-07T11:00:03.410Z,6.03
2023-04-07T11:01:03.476Z,6.08
2023-04-07T11:02:03.606Z,6.01
2023-04-07T11:03:03.720Z,6.08
2023-04-07T11:04:03.738Z,6.03
2023-04-07T11:05:03.801Z,6.09
2023-04-07T11:06:03.857Z,6.03
2023-04-07T11:07:03.964Z,6.03
2023-04-07T11:08:04.046Z,6.08
2023-04-07T11:09:04.142Z,6.12
2023-04-07T11:10:04.200Z,6.12
2023-04-07T11:11:04.279Z,6.08
2023-04-07T11:12:04.363Z,6.04
2023-04-07T11:13:04.422Z,6.03
2023-04-07T11:14:04.543Z,6.03
2023-04-07T11:15:04.590Z,5.96
2023-04-07T11:16:04.723Z,5.91
2023-04-07T11:17:04.797Z,5.82
2023-04-07T11:18:04.907Z,5.89
2023-04-07T11:19:04.899Z,5.78
2023-04-07T11:20:04.994Z,5.74
2023-04-07T11:21:05.043Z,5.71
2023-04-07T11:22:05.125Z,5.74
2023-04-07T11:23:05.269Z,5.76
2023-04-07T11:24:05.331Z,5.76
2023-04-07T11:25:05.396Z,5.65
2023-04-07T11:26:05.479Z,5.61
2023-04-07T11:27:05.544Z,5.58
2023-04-07T11:28:05.631Z,5.56
2023-04-07T11:29:05.675Z,5.54
2023-04-07T11:30:05.733Z,5.63
2023-04-07T11:31:05.900Z,5.61
2023-04-07T11:32:05.870Z,5.56
2023-04-07T11:33:05.995Z,5.63
2023-04-07T11:34:06.061Z,5.67
2023-04-07T11:35:06.117Z,5.64
2023-04-07T11:36:06.393Z,5.65
2023-04-07T11:37:06.330Z,5.65
2023-04-07T11:38:06.413Z,5.74
2023-04-07T11:39:06.510Z,5.68
2023-04-07T11:40:06.577Z,5.67
2023-04-07T11:41:06.635Z,5.65
2023-04-07T11:42:06.716Z,5.71
2023-04-07T11:43:06.794Z,5.61
2023-04-07T11:44:06.958Z,5.63
2023-04-07T11:45:08.269Z,5.71
2023-04-07T11:46:07.078Z,5.65
2023-04-07T11:47:07.269Z,5.65
2023-04-07T11:48:07.234Z,5.64
2023-04-07T11:49:07.295Z,5.61
2023-04-07T11:50:07.384Z,5.57
2023-04-07T11:51:07.438Z,5.54
2023-04-07T11:52:07.638Z,5.53
2023-04-07T11:53:07.673Z,5.54
2023-04-07T11:54:07.710Z,5.57
2023-04-07T11:55:07.810Z,5.63
2023-04-07T11:56:07.916Z,5.68
2023-04-07T11:57:07.979Z,5.71
2023-04-07T11:58:08.076Z,5.68
2023-04-07T11:59:08.150Z,5.75
2023-04-07T12:00:08.218Z,5.74
2023-04-07T12:01:08.272Z,5.72
2023-04-07T12:02:08.588Z,5.75
2023-04-07T12:03:08.785Z,5.78
2023-04-07T12:04:08.749Z,5.75
2023-04-07T12:05:08.663Z,5.75
2023-04-07T12:06:08.752Z,5.61
2023-04-07T12:07:08.840Z,5.49
2023-04-07T12:08:08.886Z,5.38
2023-04-07T12:09:08.950Z,5.30
2023-04-07T12:10:09.046Z,5.27
2023-04-07T12:11:09.094Z,5.25
2023-04-07T12:12:09.180Z,5.24
2023-04-07T12:13:09.276Z,5.25
2023-04-07T12:14:09.347Z,5.28
2023-04-07T12:15:09.427Z,5.24
2023-04-07T12:16:09.516Z,5.18
2023-04-07T12:17:09.664Z,5.17
2023-04-07T12:18:09.700Z,5.10
2023-04-07T12:19:09.816Z,5.12
2023-04-07T12:20:09.905Z,5.13
2023-04-07T12:21:09.969Z,5.20
2023-04-07T12:22:10.032Z,5.18
2023-04-07T12:23:10.147Z,5.22
2023-04-07T12:24:10.182Z,5.21
2023-04-07T12:25:10.271Z,5.25
2023-04-07T12:26:10.339Z,5.28
2023-04-07T12:27:10.443Z,5.31
2023-04-07T12:28:10.516Z,5.33
2023-04-07T12:29:10.548Z,5.31
2023-04-07T12:30:10.714Z,5.35
2023-04-07T12:31:10.739Z,5.33
2023-04-07T12:32:10.823Z,5.35
2023-04-07T12:33:10.949Z,5.36
2023-04-07T12:34:10.974Z,5.38
2023-04-07T12:35:11.053Z,5.38
2023-04-07T12:36:33.260Z,5.39
2023-04-07T12:37:11.207Z,5.38
2023-04-07T12:38:11.377Z,5.42
2023-04-07T12:39:11.389Z,5.46
2023-04-07T12:40:11.514Z,5.42
2023-04-07T12:41:11.599Z,5.38
2023-04-07T12:42:11.642Z,5.31
2023-04-07T12:43:11.727Z,5.36
2023-04-07T12:44:11.834Z,5.48
2023-04-07T12:45:11.897Z,5.51
2023-04-07T12:46:12.022Z,5.60
2023-04-07T12:47:12.103Z,5.64
2023-04-07T12:48:12.133Z,5.68
2023-04-07T12:49:12.286Z,5.65
2023-04-07T12:50:12.378Z,5.63
2023-04-07T12:51:12.443Z,5.60
2023-04-07T12:52:12.496Z,5.58
2023-04-07T12:53:12.660Z,5.67
2023-04-07T12:54:12.691Z,5.67
2023-04-07T12:55:12.780Z,5.67
2023-04-07T12:56:12.889Z,5.74
2023-04-07T12:57:12.972Z,5.71
2023-04-07T12:58:13.042Z,5.68
2023-04-07T12:59:13.125Z,5.72
2023-04-07T13:00:13.219Z,5.71
2023-04-07T13:01:13.397Z,5.75
2023-04-07T13:02:13.532Z,5.71
2023-04-07T13:03:13.541Z,5.71
2023-04-07T13:04:13.553Z,5.68
2023-04-07T13:05:13.566Z,5.75
2023-04-07T13:06:13.704Z,5.76
2023-04-07T13:07:13.781Z,5.72
2023-04-07T13:08:13.856Z,5.75
2023-04-07T13:09:13.891Z,5.72
2023-04-07T13:10:13.954Z,5.79
2023-04-07T13:11:14.044Z,5.78
2023-04-07T13:12:14.164Z,5.79
2023-04-07T13:13:14.201Z,5.75
2023-04-07T13:14:14.281Z,5.74
2023-04-07T13:15:14.372Z,5.65
2023-04-07T13:16:14.517Z,5.67
2023-04-07T13:17:14.591Z,5.67
2023-04-07T13:18:14.627Z,5.57
2023-04-07T13:19:14.715Z,5.61
2023-04-07T13:20:19.390Z,5.56
2023-04-07T13:22:18.251Z,5.57
2023-04-07T13:23:16.015Z,5.51
2023-04-07T13:24:15.095Z,5.51
2023-04-07T13:25:15.162Z,5.48
2023-04-07T13:26:15.264Z,5.43
2023-04-07T13:27:15.363Z,5.40
2023-04-07T13:28:15.484Z,5.39
2023-04-07T13:29:15.521Z,5.40
2023-04-07T13:30:15.609Z,5.39
2023-04-07T13:31:15.928Z,5.33
2023-04-07T13:32:15.767Z,5.36
2023-04-07T13:33:15.866Z,5.33
2023-04-07T13:34:15.930Z,5.28
2023-04-07T13:35:16.043Z,5.28
2023-04-07T13:36:16.132Z,5.30
2023-04-07T13:37:16.176Z,5.30
2023-04-07T13:38:16.381Z,5.27
2023-04-07T13:39:16.346Z,5.24
2023-04-07T13:40:16.508Z,5.25
2023-04-07T13:41:16.488Z,5.17
2023-04-07T13:42:16.604Z,5.09
2023-04-07T13:43:16.745Z,5.13
2023-04-07T13:44:16.812Z,5.15
2023-04-07T13:45:16.821Z,5.12
2023-04-07T13:46:27.208Z,5.17
2023-04-07T13:47:17.974Z,5.18
2023-04-07T13:48:17.069Z,5.15
2023-04-07T13:49:17.206Z,5.20
2023-04-07T13:50:17.308Z,5.25
2023-04-07T13:51:17.320Z,5.25
2023-04-07T13:52:17.423Z,5.24
2023-04-07T13:53:18.945Z,5.25
2023-04-07T13:54:17.605Z,5.24
2023-04-07T13:55:17.706Z,5.24
2023-04-07T13:56:17.752Z,5.20
2023-04-07T13:57:17.835Z,5.20
2023-04-07T13:58:17.914Z,5.22
2023-04-07T13:59:17.998Z,5.22
2023-04-07T14:00:18.137Z,5.20
2023-04-07T14:01:18.165Z,5.18
2023-04-07T14:02:18.343Z,5.13
2023-04-07T14:03:18.344Z,5.18
2023-04-07T14:04:18.405Z,5.17
2023-04-07T14:05:18.424Z,5.21
2023-04-07T14:06:18.567Z,5.20
2023-04-07T14:07:18.659Z,5.24
2023-04-07T14:08:18.662Z,5.18
2023-04-07T14:09:18.753Z,5.21
2023-04-07T14:10:18.824Z,5.17
2023-04-07T14:11:18.959Z,5.25
2023-04-07T14:12:18.985Z,5.25
2023-04-07T14:13:19.068Z,5.22
2023-04-07T14:14:19.096Z,5.25
2023-04-07T14:15:19.219Z,5.28
2023-04-07T14:16:19.335Z,5.27
2023-04-07T14:17:19.375Z,5.31
2023-04-07T14:18:19.440Z,5.33
2023-04-07T14:19:19.515Z,5.28
2023-04-07T14:20:19.641Z,5.31
2023-04-07T14:21:19.718Z,5.28
2023-04-07T14:22:19.826Z,5.28
2023-04-07T14:23:33.837Z,5.25
2023-04-07T14:24:20.928Z,5.28
2023-04-07T14:25:20.001Z,5.36
2023-04-07T14:26:20.077Z,5.35
2023-04-07T14:27:20.207Z,5.30
2023-04-07T14:28:20.227Z,5.30
2023-04-07T14:29:20.359Z,5.30
2023-04-07T14:30:20.417Z,5.31
2023-04-07T14:31:20.528Z,5.30
2023-04-07T14:32:20.621Z,5.35
2023-04-07T14:33:20.763Z,5.36
2023-04-07T14:34:20.750Z,5.36
2023-04-07T14:35:20.840Z,5.38
2023-04-07T14:36:20.934Z,5.38
2023-04-07T14:37:21.082Z,5.39
2023-04-07T14:38:21.109Z,5.36
2023-04-07T14:39:21.198Z,5.39
2023-04-07T14:40:21.640Z,5.38
2023-04-07T14:41:21.387Z,5.36
2023-04-07T14:42:21.443Z,5.42
2023-04-07T14:43:21.495Z,5.38
2023-04-07T14:44:21.646Z,5.40
2023-04-07T14:45:21.665Z,5.33
2023-04-07T14:46:21.742Z,5.38
2023-04-07T14:47:21.823Z,5.33
2023-04-07T14:48:21.901Z,5.35
2023-04-07T14:49:22.013Z,5.33
2023-04-07T14:50:22.055Z,5.28
2023-04-07T14:51:22.132Z,5.31
2023-04-07T14:52:22.265Z,5.30
2023-04-07T14:53:22.298Z,5.33
2023-04-07T14:54:22.397Z,5.36
2023-04-07T14:55:22.510Z,5.30
2023-04-07T14:56:22.593Z,5.30
2023-04-07T14:57:22.628Z,5.27
2023-04-07T14:58:22.719Z,5.28
2023-04-07T14:59:22.786Z,5.33
2023-04-07T15:00:22.897Z,5.33
2023-04-07T15:01:22.978Z,5.30
2023-04-07T15:02:23.263Z,5.30
2023-04-07T15:03:23.273Z,5.31
2023-04-07T15:04:23.257Z,5.31
2023-04-07T15:05:23.279Z,5.31
2023-04-07T15:06:23.423Z,5.31
2023-04-07T15:07:23.494Z,5.31
2023-04-07T15:08:23.586Z,5.33
2023-04-07T15:09:23.634Z,5.33
2023-04-07T15:10:23.808Z,5.35
2023-04-07T15:11:23.809Z,5.36
2023-04-07T15:12:23.901Z,5.36
2023-04-07T15:13:24.018Z,5.33
2023-04-07T15:14:24.080Z,5.31
2023-04-07T15:15:24.141Z,5.39
2023-04-07T15:16:24.230Z,5.31
2023-04-07T15:17:36.422Z,5.35
2023-04-07T15:18:25.477Z,5.39
2023-04-07T15:19:24.510Z,5.33
2023-04-07T15:20:24.579Z,5.30
2023-04-07T15:21:24.660Z,5.27
2023-04-07T15:22:24.742Z,5.28
2023-04-07T15:23:24.855Z,5.25
2023-04-07T15:24:24.898Z,5.27
2023-04-07T15:25:24.946Z,5.24
2023-04-07T15:26:25.054Z,5.22
2023-04-07T15:27:25.155Z,5.22
2023-04-07T15:28:25.240Z,5.24
2023-04-07T15:29:25.316Z,5.24
2023-04-07T15:30:25.387Z,5.27
2023-04-07T15:31:25.517Z,5.28
2023-04-07T15:32:25.519Z,5.31
2023-04-07T15:33:25.764Z,5.30
2023-04-07T15:34:25.753Z,5.31
2023-04-07T15:35:26.006Z,5.24
2023-04-07T15:36:25.908Z,5.27
2023-04-07T15:37:25.990Z,5.31
2023-04-07T15:38:26.058Z,5.27
2023-04-07T15:39:26.151Z,5.30
2023-04-07T15:40:26.215Z,5.28
2023-04-07T15:41:26.269Z,5.30
2023-04-07T15:42:26.382Z,5.25
2023-04-07T15:43:26.416Z,5.27
2023-04-07T15:44:26.517Z,5.28
2023-04-07T15:45:26.555Z,5.30
2023-04-07T15:46:26.686Z,5.27
2023-04-07T15:47:26.893Z,5.30
2023-04-07T15:48:26.815Z,5.27
2023-04-07T15:49:26.891Z,5.25
2023-04-07T15:50:26.979Z,5.25
2023-04-07T15:51:27.108Z,5.21
2023-04-07T15:52:27.137Z,5.22
2023-04-07T15:53:27.252Z,5.24
2023-04-07T15:54:27.326Z,5.25
2023-04-07T15:55:27.401Z,5.22
2023-04-07T15:56:27.507Z,5.31
2023-04-07T15:57:27.576Z,5.27
2023-04-07T15:58:27.655Z,5.28
2023-04-07T15:59:27.708Z,5.27
2023-04-07T16:00:27.773Z,5.28
2023-04-07T16:01:27.948Z,5.30
2023-04-07T16:02:28.094Z,5.28
2023-04-07T16:03:28.450Z,5.30
2023-04-07T16:04:28.109Z,5.28
2023-04-07T16:05:28.151Z,5.27
2023-04-07T16:06:28.262Z,5.30
2023-04-07T16:07:28.355Z,5.30
2023-04-07T16:08:28.378Z,5.33
2023-04-07T16:09:28.518Z,5.30
2023-04-07T16:10:28.553Z,5.36
2023-04-07T16:11:28.610Z,5.31
2023-04-07T16:12:28.715Z,5.30
2023-04-07T16:13:28.773Z,5.35
2023-04-07T16:14:28.897Z,5.31
2023-04-07T16:15:39.306Z,5.35
2023-04-07T16:16:30.038Z,5.39
2023-04-07T16:17:29.273Z,5.33
2023-04-07T16:18:29.163Z,5.30
2023-04-07T16:19:29.262Z,5.28
2023-04-07T16:20:29.356Z,5.24
2023-04-07T16:21:29.435Z,5.31
2023-04-07T16:22:29.508Z,5.31
2023-04-07T16:23:29.597Z,5.31
2023-04-07T16:24:29.692Z,5.31
2023-04-07T16:25:29.775Z,5.30
2023-04-07T16:26:29.854Z,5.28
2023-04-07T16:27:29.930Z,5.33
2023-04-07T16:28:30.033Z,5.30
2023-04-07T16:29:30.065Z,5.31
2023-04-07T16:30:30.148Z,5.35
2023-04-07T16:31:30.509Z,5.28
2023-04-07T16:32:30.438Z,5.27
2023-04-07T16:33:30.467Z,5.28
2023-04-07T16:34:30.529Z,5.35
2023-04-07T16:35:30.574Z,5.35
2023-04-07T16:36:30.650Z,5.27
2023-04-07T16:37:30.794Z,5.30
2023-04-07T16:38:30.827Z,5.36
2023-04-07T16:39:30.884Z,5.35
2023-04-07T16:40:31.024Z,5.31
2023-04-07T16:41:31.080Z,5.33
2023-04-07T16:42:31.167Z,5.33
2023-04-07T16:43:31.263Z,5.36
2023-04-07T16:44:31.367Z,5.38
2023-04-07T16:45:31.391Z,5.31
2023-04-07T16:46:31.657Z,5.30
2023-04-07T16:47:31.611Z,5.33
2023-04-07T16:48:31.625Z,5.33
2023-04-07T16:49:31.712Z,5.30
2023-04-07T16:50:31.828Z,5.35
2023-04-07T16:51:31.865Z,5.36
2023-04-07T16:52:32.065Z,5.31
2023-04-07T16:53:32.065Z,5.30
2023-04-07T16:54:32.100Z,5.31
2023-04-07T16:55:32.204Z,5.30
2023-04-07T16:56:32.293Z,5.33
2023-04-07T16:57:32.297Z,5.30
2023-04-07T16:58:32.418Z,5.35
2023-04-07T16:59:32.480Z,5.33
2023-04-07T17:00:32.516Z,5.33
2023-04-07T17:01:32.669Z,5.35
2023-04-07T17:02:32.766Z,5.35
2023-04-07T17:03:32.933Z,5.35
2023-04-07T17:04:33.136Z,5.35
2023-04-07T17:05:32.916Z,5.35
2023-04-07T17:06:33.036Z,5.36
2023-04-07T17:07:33.065Z,5.35
2023-04-07T17:08:33.145Z,5.33
2023-04-07T17:09:33.206Z,5.36
2023-04-07T17:10:33.275Z,5.33
2023-04-07T17:11:33.371Z,5.35
2023-04-07T17:12:33.410Z,5.38
2023-04-07T17:13:33.514Z,5.33
2023-04-07T17:14:33.592Z,5.36
2023-04-07T17:15:33.692Z,5.38
2023-04-07T17:16:33.857Z,5.39
2023-04-07T17:17:33.871Z,5.36
2023-04-07T17:18:33.941Z,5.36
2023-04-07T17:19:34.032Z,5.42
2023-04-07T17:20:34.100Z,5.40
2023-04-07T17:21:34.206Z,5.39
2023-04-07T17:22:34.295Z,5.35
2023-04-07T17:23:34.345Z,5.40
2023-04-07T17:24:34.418Z,5.36
2023-04-07T17:25:34.495Z,5.36
2023-04-07T17:26:34.639Z,5.38
2023-04-07T17:27:34.654Z,5.35
2023-04-07T17:28:34.752Z,5.36
2023-04-07T17:29:34.831Z,5.35
2023-04-07T17:30:34.951Z,5.31
2023-04-07T17:31:35.039Z,5.31
2023-04-07T17:32:35.090Z,5.38
2023-04-07T17:33:35.240Z,5.33
2023-04-07T17:34:35.241Z,5.36
2023-04-07T17:35:35.419Z,5.36
2023-04-07T17:36:35.437Z,5.35
2023-04-07T17:37:35.521Z,5.33
2023-04-07T17:38:35.587Z,5.33
2023-04-07T17:39:35.694Z,5.35
2023-04-07T17:40:35.805Z,5.33
2023-04-07T17:41:35.830Z,5.30
2023-04-07T17:42:35.926Z,5.33
2023-04-07T17:43:36.062Z,5.36
2023-04-07T17:44:36.093Z,5.30
2023-04-07T17:45:36.210Z,5.33
2023-04-07T17:46:36.273Z,5.33
2023-04-07T17:47:36.525Z,5.27
2023-04-07T17:48:36.412Z,5.30
2023-04-07T17:49:36.492Z,5.28
2023-04-07T17:50:36.554Z,5.28
2023-04-07T17:51:36.640Z,5.33
2023-04-07T17:52:36.747Z,5.33
2023-04-07T17:53:36.888Z,5.36
2023-04-07T17:54:36.930Z,5.33
2023-04-07T17:55:36.963Z,5.35
2023-04-07T17:56:37.117Z,5.35
2023-04-07T17:57:37.190Z,5.31
2023-04-07T17:58:37.266Z,5.33
2023-04-07T17:59:37.341Z,5.31
2023-04-07T18:00:37.448Z,5.30
2023-04-07T18:01:37.584Z,5.33
2023-04-07T18:02:37.912Z,5.31
2023-04-07T18:03:37.907Z,5.36
2023-04-07T18:04:37.933Z,5.30
2023-04-07T18:05:37.864Z,5.31
2023-04-07T18:06:37.876Z,5.36
2023-04-07T18:07:37.988Z,5.33
2023-04-07T18:08:38.141Z,5.39
2023-04-07T18:09:38.122Z,5.31
2023-04-07T18:10:38.210Z,5.33
2023-04-07T18:11:38.283Z,5.35
2023-04-07T18:12:38.418Z,5.36
2023-04-07T18:13:38.489Z,5.38
2023-04-07T18:14:38.538Z,5.31
2023-04-07T18:15:38.689Z,5.33
2023-04-07T18:16:38.670Z,5.33
2023-04-07T18:17:38.843Z,5.33
2023-04-07T18:18:38.985Z,5.33
2023-04-07T18:19:38.978Z,5.35
2023-04-07T18:20:39.039Z,5.30
2023-04-07T18:21:39.173Z,5.31
2023-04-07T18:22:39.284Z,5.35
2023-04-07T18:23:39.330Z,5.33
2023-04-07T18:24:39.429Z,5.28
2023-04-07T18:25:39.504Z,5.31
2023-04-07T18:26:39.621Z,5.30
2023-04-07T18:27:39.878Z,5.28
2023-04-07T18:28:39.800Z,5.28
2023-04-07T18:29:39.833Z,5.28
2023-04-07T18:30:39.945Z,5.30
2023-04-07T18:31:40.123Z,5.33
2023-04-07T18:32:40.135Z,5.35
2023-04-07T18:33:40.170Z,5.28
2023-04-07T18:34:40.218Z,5.31
2023-04-07T18:35:40.339Z,5.30
2023-04-07T18:36:47.842Z,5.28
2023-04-07T18:37:41.461Z,5.28
2023-04-07T18:38:40.504Z,5.30
2023-04-07T18:39:40.584Z,5.35
2023-04-07T18:40:40.642Z,5.24
2023-04-07T18:41:40.720Z,5.31
2023-04-07T18:42:40.783Z,5.36
2023-04-07T18:43:40.850Z,5.31
2023-04-07T18:44:41.031Z,5.31
2023-04-07T18:45:40.989Z,5.35
2023-04-07T18:46:41.092Z,5.28
2023-04-07T18:47:41.183Z,5.27